Le Ponant — FGZZ — position and weather

sailwx.info

Track history (hours):
 
Tides and Currents Weather Stations Pressure Air Temp Water Temp Dewpoint Dewpoint Depression Visibility Wind Speed Wind Dir Waves Ship Positions

Le Ponant

Operator: Compangy des Iles du Ponant

Last reported at 2017-Sep-21 16:18 UTC. Time now 2017-Sep-22 06:17 UTC.
Position N 40°34' E 014°31'.

Length 84 m; draft 4.2 m.

Type: Passenger vessel. MMSI: 227186000.

Date/timePositionNaut miles runAvg speedWind from/ knotsBaromVisibWave heightAir tempDewpointWater temp
2017-Sep-21 16:18N 40°34' E 014°31'3 8.6
2017-Sep-21 16:00N 40°37' E 014°30'13 0.3
2017-Sep-19 19:23N 40°46' E 014°19'410.9
2017-Sep-19 19:00N 40°42' E 014°17'510.6
2017-Sep-19 18:30N 40°37' E 014°17'5 8.0
2017-Sep-19 17:56N 40°33' E 014°21'5 9.6
2017-Sep-19 17:27N 40°33' E 014°27'112 4.3
2017-Sep-18 15:25N 38°47' E 015°15'4 4.2
2017-Sep-18 14:22N 38°44' E 015°12'3 7.5
2017-Sep-18 13:58N 38°41' E 015°11'4 9.3
2017-Sep-18 13:30N 38°37' E 015°08'510.6
2017-Sep-18 13:00N 38°33' E 015°04'5 9.4
2017-Sep-18 12:27N 38°29' E 014°60'2 0.9
2017-Sep-18 10:11N 38°28' E 014°58'0 0.1
2017-Sep-18 09:59N 38°28' E 014°58'0 0.0
2017-Sep-18 08:08N 38°28' E 014°58'0 0.0
2017-Sep-18 07:53N 38°28' E 014°58'0 0.0
2017-Sep-18 07:20N 38°28' E 014°58'0 0.0
2017-Sep-18 06:44N 38°28' E 014°58'0 0.0
2017-Sep-18 06:17N 38°28' E 014°58'0 0.0
2017-Sep-18 05:56N 38°28' E 014°58'1 1.9
2017-Sep-18 05:19N 38°28' E 014°59'2 4.7
2017-Sep-18 05:00N 38°26' E 014°58'49 9.9
2017-Sep-18 00:04N 38°21' E 013°56'310.7
2017-Sep-17 23:46N 38°20' E 013°52'310.7
2017-Sep-17 23:29N 38°20' E 013°48'510.5
2017-Sep-17 23:00N 38°19' E 013°42'510.8
2017-Sep-17 22:30N 38°19' E 013°35'511.0
2017-Sep-17 22:00N 38°18' E 013°28'510.7
2017-Sep-17 21:30N 38°17' E 013°21'510.7
2017-Sep-17 21:00N 38°17' E 013°14'510.8
2017-Sep-17 20:30N 38°16' E 013°07'610.7
2017-Sep-17 19:58N 38°16' E 013°00'610.7
2017-Sep-17 19:25N 38°15' E 012°53'21 9.1
2017-Sep-17 17:10N 38°05' E 012°30'1 8.3
2017-Sep-17 17:00N 38°03' E 012°29'2 3.4
2017-Sep-17 16:30N 38°02' E 012°28'2 3.5
2017-Sep-17 15:57N 38°01' E 012°31'0 0.0
2017-Sep-17 15:27N 38°01' E 012°31'0 0.0
2017-Sep-17 14:54N 38°01' E 012°31'0 0.0
2017-Sep-17 14:27N 38°01' E 012°31'0 0.0
2017-Sep-17 13:57N 38°01' E 012°31'0 0.0
2017-Sep-17 13:00N 38°01' E 012°31'0 0.0
2017-Sep-17 12:30N 38°01' E 012°31'0 0.0
2017-Sep-17 11:45N 38°01' E 012°31'0 0.0
2017-Sep-17 11:27N 38°01' E 012°31'0 0.0
2017-Sep-17 10:57N 38°01' E 012°31'0 0.0
2017-Sep-17 10:27N 38°01' E 012°31'0 0.0
2017-Sep-17 09:45N 38°01' E 012°31'0 0.0
2017-Sep-17 09:30N 38°01' E 012°31'0 0.0
2017-Sep-17 08:51N 38°01' E 012°31'0 0.0
2017-Sep-17 08:30N 38°01' E 012°31'0 0.0
2017-Sep-17 07:51N 38°01' E 012°31'0 0.0
2017-Sep-17 07:21N 38°01' E 012°31'0 0.0
2017-Sep-17 06:51N 38°01' E 012°31'0 0.0
2017-Sep-17 06:21N 38°01' E 012°31'0 0.0
2017-Sep-17 06:00N 38°01' E 012°31'2 3.4
2017-Sep-17 05:30N 38°01' E 012°28'27 7.2
2017-Sep-17 01:47N 38°16' E 012°56'3 8.5
2017-Sep-17 01:26N 38°17' E 012°60'4 8.1
2017-Sep-17 01:00N 38°16' E 013°04'2 5.0
2017-Sep-17 00:30N 38°16' E 013°01'4 7.8
2017-Sep-17 00:01N 38°16' E 013°06'4 7.8
2017-Sep-16 23:31N 38°17' E 013°11'4 7.5
2017-Sep-16 23:01N 38°17' E 013°16'4 8.2
2017-Sep-16 22:30N 38°17' E 013°21'4 7.2
2017-Sep-16 22:01N 38°14' E 013°24'4 8.2
2017-Sep-16 21:31N 38°10' E 013°25'3 6.6
2017-Sep-16 21:01N 38°07' E 013°24'2 3.1
2017-Sep-16 20:31N 38°08' E 013°22'0 0.0
2017-Sep-16 20:00N 38°08' E 013°22'0 0.0
2017-Sep-16 19:30N 38°08' E 013°22'0 0.0
2017-Sep-16 19:00N 38°08' E 013°22'0 0.0
2017-Sep-16 18:30N 38°08' E 013°22'0 0.0
2017-Sep-16 18:00N 38°08' E 013°22'0 0.0
2017-Sep-16 17:30N 38°08' E 013°22'0 0.0
2017-Sep-16 17:00N 38°08' E 013°22'0 0.0
2017-Sep-16 16:30N 38°08' E 013°22'0 0.0
2017-Sep-16 16:00N 38°08' E 013°22'0 0.0
2017-Sep-16 15:30N 38°08' E 013°22'0 0.0
2017-Sep-16 15:00N 38°08' E 013°22'0 0.0
2017-Sep-16 14:30N 38°08' E 013°22'0 0.0
2017-Sep-16 13:57N 38°08' E 013°22'0 0.0
2017-Sep-16 13:30N 38°08' E 013°22'0 0.0
2017-Sep-16 13:00N 38°08' E 013°22'0 0.0
2017-Sep-16 12:30N 38°08' E 013°22'0 0.0
2017-Sep-16 11:57N 38°08' E 013°22'0 0.0
2017-Sep-16 11:27N 38°08' E 013°22'0 0.0
2017-Sep-16 11:00N 38°08' E 013°22'0 0.0
2017-Sep-16 10:30N 38°08' E 013°22'0 0.0
2017-Sep-16 10:00N 38°08' E 013°22'1 2.9
2017-Sep-16 09:30N 38°08' E 013°24'0 0.4
2017-Sep-16 09:00N 38°08' E 013°24'3 6.9
2017-Sep-16 08:30N 38°11' E 013°25'4 7.0
2017-Sep-16 08:00N 38°11' E 013°29'4 8.8
2017-Sep-16 07:30N 38°10' E 013°35'5 9.5
2017-Sep-16 07:01N 38°11' E 013°41'5 9.8
2017-Sep-16 06:30N 38°11' E 013°47'5 9.5
2017-Sep-16 06:00N 38°12' E 013°53'5 9.2
2017-Sep-16 05:31N 38°12' E 013°59'5 9.2
2017-Sep-16 05:00N 38°13' E 014°04'5 9.2
2017-Sep-16 04:30N 38°14' E 014°10'5 9.4
2017-Sep-16 04:00N 38°14' E 014°16'5 9.6
2017-Sep-16 03:30N 38°15' E 014°22'5 9.4
2017-Sep-16 03:00N 38°15' E 014°28'5 9.3
2017-Sep-16 02:30N 38°16' E 014°34'5 9.3
2017-Sep-16 02:00N 38°16' E 014°40'11 9.3
2017-Sep-16 00:52N 38°18' E 014°53'4 9.2
2017-Sep-16 00:23N 38°18' E 014°59'4 9.4
2017-Sep-15 23:59N 38°19' E 015°04'5 9.3
2017-Sep-15 23:28N 38°19' E 015°10'4 9.1
2017-Sep-15 23:00N 38°20' E 015°15'5 9.1
2017-Sep-15 22:30N 38°20' E 015°21'5 9.2
2017-Sep-15 22:01N 38°21' E 015°27'4 8.8
2017-Sep-15 21:30N 38°21' E 015°32'5 9.1
2017-Sep-15 21:01N 38°19' E 015°38'4 8.2
2017-Sep-15 20:30N 38°17' E 015°42'4 8.0
2017-Sep-15 20:00N 38°14' E 015°37'4 8.0
2017-Sep-15 19:30N 38°10' E 015°37'3 7.0
2017-Sep-15 19:00N 38°07' E 015°36'4 8.6
2017-Sep-15 18:30N 38°03' E 015°34'4 8.8
2017-Sep-15 18:00N 37°59' E 015°31'5 8.4
2017-Sep-15 17:23N 37°55' E 015°26'9 8.7
2017-Sep-15 16:23N 37°50' E 015°18'1 0.2
2017-Sep-15 11:43N 37°50' E 015°17'0 0.0
2017-Sep-15 11:19N 37°50' E 015°17'0 0.0
2017-Sep-15 06:25N 37°50' E 015°17'0 0.0
2017-Sep-15 05:49N 37°50' E 015°17'1 3.3
2017-Sep-15 05:22N 37°48' E 015°18'2 4.6
2017-Sep-15 05:00N 37°47' E 015°18'4 6.9
2017-Sep-15 04:28N 37°43' E 015°18'91 3.1
2017-Sep-13 22:40N 36°14' E 014°51'4 9.3
2017-Sep-13 22:15N 36°11' E 014°48'3 9.5
2017-Sep-13 21:56N 36°09' E 014°45'8 9.4
2017-Sep-13 21:05N 36°03' E 014°39'1 9.3
2017-Sep-13 20:58N 36°02' E 014°39'4 9.4
2017-Sep-13 20:30N 35°58' E 014°35'5 9.4
2017-Sep-13 20:00N 35°54' E 014°32'1 0.0
2017-Sep-13 04:14N 35°54' E 014°31'2 7.8
2017-Sep-13 04:00N 35°55' E 014°33'3 6.7
2017-Sep-13 03:30N 35°58' E 014°35'4 8.6
2017-Sep-13 03:00N 36°03' E 014°36'5 9.9
2017-Sep-13 02:30N 36°07' E 014°38'510.1
2017-Sep-13 02:00N 36°12' E 014°41'6 9.5
2017-Sep-13 01:23N 36°16' E 014°46'410.3
2017-Sep-13 01:00N 36°19' E 014°50'2610.3
2017-Sep-12 22:30N 36°38' E 015°11'69 3.0
2017-Sep-11 23:42N 37°45' E 015°29'1 7.2
2017-Sep-11 23:30N 37°46' E 015°29'4 7.5
2017-Sep-11 22:58N 37°50' E 015°30'4 8.3
2017-Sep-11 22:30N 37°54' E 015°31'5 8.0
2017-Sep-11 21:56N 37°59' E 015°32'4 8.8
2017-Sep-11 21:30N 38°02' E 015°33'5 9.7
2017-Sep-11 20:59N 38°07' E 015°34'4 8.8
2017-Sep-11 20:30N 38°11' E 015°35'  
Track history (hours):
 
Tides and Currents Weather Stations Pressure Air Temp Water Temp Dewpoint Dewpoint Depression Visibility Wind Speed Wind Dir Waves Ship Positions

Le Ponant

Operator: Compangy des Iles du Ponant

Last reported at 2017-Sep-21 16:18 UTC. Time now 2017-Sep-22 06:17 UTC.
Position N 40°34' E 014°31'.

Length 84 m; draft 4.2 m.

Type: Passenger vessel. MMSI: 227186000.

Date/timePositionNaut miles runAvg speedWind from/ knotsBaromVisibWave heightAir tempDewpointWater temp
2017-Sep-21 16:18N 40°34' E 014°31'3 8.6
2017-Sep-21 16:00N 40°37' E 014°30'13 0.3
2017-Sep-19 19:23N 40°46' E 014°19'410.9
2017-Sep-19 19:00N 40°42' E 014°17'510.6
2017-Sep-19 18:30N 40°37' E 014°17'5 8.0
2017-Sep-19 17:56N 40°33' E 014°21'5 9.6
2017-Sep-19 17:27N 40°33' E 014°27'112 4.3
2017-Sep-18 15:25N 38°47' E 015°15'4 4.2
2017-Sep-18 14:22N 38°44' E 015°12'3 7.5
2017-Sep-18 13:58N 38°41' E 015°11'4 9.3
2017-Sep-18 13:30N 38°37' E 015°08'510.6
2017-Sep-18 13:00N 38°33' E 015°04'5 9.4
2017-Sep-18 12:27N 38°29' E 014°60'2 0.9
2017-Sep-18 10:11N 38°28' E 014°58'0 0.1
2017-Sep-18 09:59N 38°28' E 014°58'0 0.0
2017-Sep-18 08:08N 38°28' E 014°58'0 0.0
2017-Sep-18 07:53N 38°28' E 014°58'0 0.0
2017-Sep-18 07:20N 38°28' E 014°58'0 0.0
2017-Sep-18 06:44N 38°28' E 014°58'0 0.0
2017-Sep-18 06:17N 38°28' E 014°58'0 0.0
2017-Sep-18 05:56N 38°28' E 014°58'1 1.9
2017-Sep-18 05:19N 38°28' E 014°59'2 4.7
2017-Sep-18 05:00N 38°26' E 014°58'49 9.9
2017-Sep-18 00:04N 38°21' E 013°56'310.7
2017-Sep-17 23:46N 38°20' E 013°52'310.7
2017-Sep-17 23:29N 38°20' E 013°48'510.5
2017-Sep-17 23:00N 38°19' E 013°42'510.8
2017-Sep-17 22:30N 38°19' E 013°35'511.0
2017-Sep-17 22:00N 38°18' E 013°28'510.7
2017-Sep-17 21:30N 38°17' E 013°21'510.7
2017-Sep-17 21:00N 38°17' E 013°14'510.8
2017-Sep-17 20:30N 38°16' E 013°07'610.7
2017-Sep-17 19:58N 38°16' E 013°00'610.7
2017-Sep-17 19:25N 38°15' E 012°53'21 9.1
2017-Sep-17 17:10N 38°05' E 012°30'1 8.3
2017-Sep-17 17:00N 38°03' E 012°29'2 3.4
2017-Sep-17 16:30N 38°02' E 012°28'2 3.5
2017-Sep-17 15:57N 38°01' E 012°31'0 0.0
2017-Sep-17 15:27N 38°01' E 012°31'0 0.0
2017-Sep-17 14:54N 38°01' E 012°31'0 0.0
2017-Sep-17 14:27N 38°01' E 012°31'0 0.0
2017-Sep-17 13:57N 38°01' E 012°31'0 0.0
2017-Sep-17 13:00N 38°01' E 012°31'0 0.0
2017-Sep-17 12:30N 38°01' E 012°31'0 0.0
2017-Sep-17 11:45N 38°01' E 012°31'0 0.0
2017-Sep-17 11:27N 38°01' E 012°31'0 0.0
2017-Sep-17 10:57N 38°01' E 012°31'0 0.0
2017-Sep-17 10:27N 38°01' E 012°31'0 0.0
2017-Sep-17 09:45N 38°01' E 012°31'0 0.0
2017-Sep-17 09:30N 38°01' E 012°31'0 0.0
2017-Sep-17 08:51N 38°01' E 012°31'0 0.0
2017-Sep-17 08:30N 38°01' E 012°31'0 0.0
2017-Sep-17 07:51N 38°01' E 012°31'0 0.0
2017-Sep-17 07:21N 38°01' E 012°31'0 0.0
2017-Sep-17 06:51N 38°01' E 012°31'0 0.0
2017-Sep-17 06:21N 38°01' E 012°31'0 0.0
2017-Sep-17 06:00N 38°01' E 012°31'2 3.4
2017-Sep-17 05:30N 38°01' E 012°28'27 7.2
2017-Sep-17 01:47N 38°16' E 012°56'3 8.5
2017-Sep-17 01:26N 38°17' E 012°60'4 8.1
2017-Sep-17 01:00N 38°16' E 013°04'2 5.0
2017-Sep-17 00:30N 38°16' E 013°01'4 7.8
2017-Sep-17 00:01N 38°16' E 013°06'4 7.8
2017-Sep-16 23:31N 38°17' E 013°11'4 7.5
2017-Sep-16 23:01N 38°17' E 013°16'4 8.2
2017-Sep-16 22:30N 38°17' E 013°21'4 7.2
2017-Sep-16 22:01N 38°14' E 013°24'4 8.2
2017-Sep-16 21:31N 38°10' E 013°25'3 6.6
2017-Sep-16 21:01N 38°07' E 013°24'2 3.1
2017-Sep-16 20:31N 38°08' E 013°22'0 0.0
2017-Sep-16 20:00N 38°08' E 013°22'0 0.0
2017-Sep-16 19:30N 38°08' E 013°22'0 0.0
2017-Sep-16 19:00N 38°08' E 013°22'0 0.0
2017-Sep-16 18:30N 38°08' E 013°22'0 0.0
2017-Sep-16 18:00N 38°08' E 013°22'0 0.0
2017-Sep-16 17:30N 38°08' E 013°22'0 0.0
2017-Sep-16 17:00N 38°08' E 013°22'0 0.0
2017-Sep-16 16:30N 38°08' E 013°22'0 0.0
2017-Sep-16 16:00N 38°08' E 013°22'0 0.0
2017-Sep-16 15:30N 38°08' E 013°22'0 0.0
2017-Sep-16 15:00N 38°08' E 013°22'0 0.0
2017-Sep-16 14:30N 38°08' E 013°22'0 0.0
2017-Sep-16 13:57N 38°08' E 013°22'0 0.0
2017-Sep-16 13:30N 38°08' E 013°22'0 0.0
2017-Sep-16 13:00N 38°08' E 013°22'0 0.0
2017-Sep-16 12:30N 38°08' E 013°22'0 0.0
2017-Sep-16 11:57N 38°08' E 013°22'0 0.0
2017-Sep-16 11:27N 38°08' E 013°22'0 0.0
2017-Sep-16 11:00N 38°08' E 013°22'0 0.0
2017-Sep-16 10:30N 38°08' E 013°22'0 0.0
2017-Sep-16 10:00N 38°08' E 013°22'1 2.9
2017-Sep-16 09:30N 38°08' E 013°24'0 0.4
2017-Sep-16 09:00N 38°08' E 013°24'3 6.9
2017-Sep-16 08:30N 38°11' E 013°25'4 7.0
2017-Sep-16 08:00N 38°11' E 013°29'4 8.8
2017-Sep-16 07:30N 38°10' E 013°35'5 9.5
2017-Sep-16 07:01N 38°11' E 013°41'5 9.8
2017-Sep-16 06:30N 38°11' E 013°47'5 9.5
2017-Sep-16 06:00N 38°12' E 013°53'5 9.2
2017-Sep-16 05:31N 38°12' E 013°59'5 9.2
2017-Sep-16 05:00N 38°13' E 014°04'5 9.2
2017-Sep-16 04:30N 38°14' E 014°10'5 9.4
2017-Sep-16 04:00N 38°14' E 014°16'5 9.6
2017-Sep-16 03:30N 38°15' E 014°22'5 9.4
2017-Sep-16 03:00N 38°15' E 014°28'5 9.3
2017-Sep-16 02:30N 38°16' E 014°34'5 9.3
2017-Sep-16 02:00N 38°16' E 014°40'11 9.3
2017-Sep-16 00:52N 38°18' E 014°53'4 9.2
2017-Sep-16 00:23N 38°18' E 014°59'4 9.4
2017-Sep-15 23:59N 38°19' E 015°04'5 9.3
2017-Sep-15 23:28N 38°19' E 015°10'4 9.1
2017-Sep-15 23:00N 38°20' E 015°15'5 9.1
2017-Sep-15 22:30N 38°20' E 015°21'5 9.2
2017-Sep-15 22:01N 38°21' E 015°27'4 8.8
2017-Sep-15 21:30N 38°21' E 015°32'5 9.1
2017-Sep-15 21:01N 38°19' E 015°38'4 8.2
2017-Sep-15 20:30N 38°17' E 015°42'4 8.0
2017-Sep-15 20:00N 38°14' E 015°37'4 8.0
2017-Sep-15 19:30N 38°10' E 015°37'3 7.0
2017-Sep-15 19:00N 38°07' E 015°36'4 8.6
2017-Sep-15 18:30N 38°03' E 015°34'4 8.8
2017-Sep-15 18:00N 37°59' E 015°31'5 8.4
2017-Sep-15 17:23N 37°55' E 015°26'9 8.7
2017-Sep-15 16:23N 37°50' E 015°18'1 0.2
2017-Sep-15 11:43N 37°50' E 015°17'0 0.0
2017-Sep-15 11:19N 37°50' E 015°17'0 0.0
2017-Sep-15 06:25N 37°50' E 015°17'0 0.0
2017-Sep-15 05:49N 37°50' E 015°17'1 3.3
2017-Sep-15 05:22N 37°48' E 015°18'2 4.6
2017-Sep-15 05:00N 37°47' E 015°18'4 6.9
2017-Sep-15 04:28N 37°43' E 015°18'91 3.1
2017-Sep-13 22:40N 36°14' E 014°51'4 9.3
2017-Sep-13 22:15N 36°11' E 014°48'3 9.5
2017-Sep-13 21:56N 36°09' E 014°45'8 9.4
2017-Sep-13 21:05N 36°03' E 014°39'1 9.3
2017-Sep-13 20:58N 36°02' E 014°39'4 9.4
2017-Sep-13 20:30N 35°58' E 014°35'5 9.4
2017-Sep-13 20:00N 35°54' E 014°32'1 0.0
2017-Sep-13 04:14N 35°54' E 014°31'2 7.8
2017-Sep-13 04:00N 35°55' E 014°33'3 6.7
2017-Sep-13 03:30N 35°58' E 014°35'4 8.6
2017-Sep-13 03:00N 36°03' E 014°36'5 9.9
2017-Sep-13 02:30N 36°07' E 014°38'510.1
2017-Sep-13 02:00N 36°12' E 014°41'6 9.5
2017-Sep-13 01:23N 36°16' E 014°46'410.3
2017-Sep-13 01:00N 36°19' E 014°50'2610.3
2017-Sep-12 22:30N 36°38' E 015°11'69 3.0
2017-Sep-11 23:42N 37°45' E 015°29'1 7.2
2017-Sep-11 23:30N 37°46' E 015°29'4 7.5
2017-Sep-11 22:58N 37°50' E 015°30'4 8.3
2017-Sep-11 22:30N 37°54' E 015°31'5 8.0
2017-Sep-11 21:56N 37°59' E 015°32'4 8.8
2017-Sep-11 21:30N 38°02' E 015°33'5 9.7
2017-Sep-11 20:59N 38°07' E 015°34'4 8.8
2017-Sep-11 20:30N 38°11' E 015°35'  

Dump ship's entire track history